Time;durP1;ratioP1;P1;durP2;ratioP2;P2;SDS_P1;SDS_P2;PMS_P1;PMS_P2;Temp;Humidity;BMP_temperature;BMP_pressure;BME280_temperature;BME280_humidity;BME280_pressure;Samples;Min_cycle;Max_cycle;Signal;HPM_P1;HPM_P2
2021/06/05 00:05:20;;;;;;;0.20;0.10;;;19.40;99.90;;;;;;20644989;23;20321;-71
2021/06/05 00:15:28;;;;;;;0.40;0.40;;;19.50;99.90;;;;;;20616352;28;20215;-71
2021/06/05 00:25:33;;;;;;;0.70;0.63;;;19.50;99.90;;;;;;20617663;28;20207;-71
2021/06/05 00:35:37;;;;;;;2.23;1.13;;;19.40;99.90;;;;;;20649750;28;20477;-70
2021/06/05 00:45:45;;;;;;;0.70;0.70;;;19.50;99.90;;;;;;20696053;28;20209;-70
2021/06/05 00:55:51;;;;;;;0.67;0.67;;;19.50;99.90;;;;;;20671382;28;20218;-71
2021/06/05 01:06:00;;;;;;;0.30;0.30;;;19.80;99.90;;;;;;20676039;23;20235;-66
2021/06/05 01:16:09;;;;;;;0.70;0.47;;;19.70;99.90;;;;;;20653401;28;20223;-67
2021/06/05 01:26:21;;;;;;;0.73;0.50;;;19.70;99.90;;;;;;20653064;28;20203;-67
2021/06/05 01:36:27;;;;;;;1.63;1.07;;;19.70;99.90;;;;;;20698195;28;20222;-66
2021/06/05 01:46:35;;;;;;;0.40;0.40;;;19.40;99.90;;;;;;20716572;28;20191;-67
2021/06/05 01:56:43;;;;;;;0.97;0.97;;;19.20;99.90;;;;;;20733681;28;20310;-66
2021/06/05 02:06:50;;;;;;;1.90;0.80;;;18.90;99.90;;;;;;20725193;28;20229;-68
2021/06/05 02:16:54;;;;;;;1.13;0.83;;;18.60;99.90;;;;;;20668358;28;20250;-67
2021/06/05 02:26:59;;;;;;;0.40;0.30;;;18.40;99.90;;;;;;20667192;28;20722;-66
2021/06/05 02:37:09;;;;;;;0.33;0.27;;;18.70;99.90;;;;;;20716078;28;20581;-66
2021/06/05 02:47:16;;;;;;;0.20;0.10;;;18.60;99.90;;;;;;20747260;28;20615;-66
2021/06/05 02:57:21;;;;;;;0.33;0.33;;;18.40;99.90;;;;;;20743495;28;20287;-67
2021/06/05 03:07:25;;;;;;;0.50;0.20;;;18.10;99.90;;;;;;20731919;28;20228;-66
2021/06/05 03:17:29;;;;;;;0.27;0.20;;;17.90;99.90;;;;;;20663867;28;20281;-65
2021/06/05 03:27:33;;;;;;;0.53;0.43;;;17.90;99.90;;;;;;20662399;28;20217;-66
2021/06/05 03:37:40;;;;;;;0.40;0.40;;;18.20;99.90;;;;;;20716179;28;20228;-66
2021/06/05 03:47:46;;;;;;;2.37;0.73;;;18.20;99.90;;;;;;20742233;28;20222;-66
2021/06/05 03:57:49;;;;;;;0.30;0.30;;;18.00;99.90;;;;;;20741385;28;20426;-65
2021/06/05 04:07:55;;;;;;;0.20;0.10;;;17.70;99.90;;;;;;20706155;28;20335;-66
2021/06/05 04:18:00;;;;;;;0.30;0.30;;;17.60;99.90;;;;;;20657248;28;20282;-67
2021/06/05 04:28:12;;;;;;;0.83;0.43;;;17.70;99.90;;;;;;20657330;28;20205;-67
2021/06/05 04:38:16;;;;;;;1.13;0.47;;;17.70;99.90;;;;;;20708903;28;20238;-68
2021/06/05 04:48:21;;;;;;;0.30;0.20;;;17.70;99.90;;;;;;20709716;28;20223;-66
2021/06/05 04:58:25;;;;;;;0.20;0.20;;;17.70;99.90;;;;;;20654948;28;20691;-66
2021/06/05 05:08:31;;;;;;;0.40;0.40;;;17.90;99.90;;;;;;20654679;28;20255;-65
2021/06/05 05:18:34;;;;;;;0.30;0.30;;;18.20;99.90;;;;;;20636758;28;20219;-67
2021/06/05 05:28:39;;;;;;;1.23;0.73;;;18.60;99.90;;;;;;20653685;28;20665;-66
2021/06/05 05:38:43;;;;;;;0.30;0.30;;;18.90;99.90;;;;;;20651679;28;20318;-66
2021/06/05 05:48:49;;;;;;;0.30;0.20;;;19.10;99.90;;;;;;20652443;28;20287;-66
2021/06/05 05:58:54;;;;;;;0.77;0.77;;;19.40;99.90;;;;;;20651353;28;20233;-67
2021/06/05 06:09:00;;;;;;;0.33;0.20;;;19.80;99.90;;;;;;20633152;28;20254;-66
2021/06/05 06:19:03;;;;;;;1.27;1.17;;;20.00;99.90;;;;;;20734694;28;20576;-67
2021/06/05 06:29:13;;;;;;;0.60;0.50;;;20.50;99.90;;;;;;20736311;28;20206;-68
2021/06/05 06:39:18;;;;;;;1.30;0.73;;;20.70;99.90;;;;;;20730196;28;20692;-68
2021/06/05 06:49:23;;;;;;;0.80;0.80;;;21.30;99.90;;;;;;20703476;28;20352;-67
2021/06/05 06:59:26;;;;;;;0.77;0.60;;;21.60;99.90;;;;;;20658800;28;20270;-65
2021/06/05 07:09:32;;;;;;;5.97;1.80;;;21.90;99.90;;;;;;20661186;28;20568;-66
2021/06/05 07:19:35;;;;;;;4.67;1.00;;;22.20;99.90;;;;;;20660604;28;20214;-67
2021/06/05 07:29:40;;;;;;;1.85;1.02;;;22.60;99.90;;;;;;20643562;28;20242;-67
2021/06/05 07:39:43;;;;;;;0.20;0.20;;;22.90;99.90;;;;;;20660805;28;20200;-68
2021/06/05 07:49:48;;;;;;;0.77;0.63;;;22.10;99.90;;;;;;20658941;28;20252;-68
2021/06/05 07:59:51;;;;;;;0.63;0.63;;;21.80;99.90;;;;;;20651477;28;20708;-67
2021/06/05 08:09:56;;;;;;;1.80;1.23;;;21.80;99.90;;;;;;20656343;28;20286;-67
2021/06/05 08:19:59;;;;;;;0.67;0.67;;;22.00;99.90;;;;;;20656412;28;20290;-66
2021/06/05 08:30:05;;;;;;;0.50;0.50;;;22.10;99.90;;;;;;20656021;28;20211;-67
2021/06/05 08:40:11;;;;;;;0.57;0.57;;;22.10;99.90;;;;;;20653789;28;20210;-68
2021/06/05 08:50:19;;;;;;;0.33;0.33;;;22.20;99.90;;;;;;20632451;28;20302;-69
2021/06/05 09:00:26;;;;;;;0.38;0.30;;;22.60;99.90;;;;;;20634719;28;20235;-65
2021/06/05 09:10:31;;;;;;;0.20;0.10;;;22.60;99.90;;;;;;20668503;28;20248;-68
2021/06/05 09:20:38;;;;;;;0.30;0.30;;;22.40;99.90;;;;;;20731781;28;20203;-68
2021/06/05 09:30:44;;;;;;;0.50;0.30;;;22.80;99.90;;;;;;20714114;28;20241;-68
2021/06/05 09:41:09;;;;;;;0.20;0.10;;;22.90;99.90;;;;;;20735460;28;20207;-67
2021/06/05 09:51:37;;;;;;;0.20;0.05;;;23.10;99.90;;;;;;20730642;28;20223;-66
2021/06/05 10:01:44;;;;;;;0.20;0.10;;;23.70;99.90;;;;;;20724852;28;20241;-67
2021/06/05 10:11:53;;;;;;;0.40;0.30;;;23.90;99.90;;;;;;20667658;28;20652;-67
2021/06/05 10:21:56;;;;;;;0.20;0.10;;;24.00;99.90;;;;;;20638377;28;20238;-67
2021/06/05 10:32:06;;;;;;;0.35;0.22;;;24.00;99.90;;;;;;20662396;28;20311;-68
2021/06/05 10:42:20;;;;;;;0.20;0.10;;;24.30;99.90;;;;;;20669067;28;20649;-65
2021/06/05 10:52:30;;;;;;;0.88;0.55;;;24.50;99.90;;;;;;20697759;28;20301;-68
2021/06/05 11:02:42;;;;;;;0.55;0.43;;;24.50;99.90;;;;;;20727576;28;20309;-68
2021/06/05 11:12:56;;;;;;;0.43;0.13;;;24.80;99.90;;;;;;20731463;28;20653;-64
2021/06/05 11:23:14;;;;;;;0.20;0.17;;;24.60;99.90;;;;;;20739971;28;20274;-69
2021/06/05 11:33:41;;;;;;;0.20;0.17;;;25.40;99.90;;;;;;20749900;28;20313;-69
2021/06/05 11:43:52;;;;;;;0.30;0.20;;;25.70;99.90;;;;;;20739966;28;20202;-68
2021/06/05 11:53:58;;;;;;;0.20;0.10;;;25.20;99.90;;;;;;20738032;28;20321;-67
2021/06/05 12:04:06;;;;;;;0.30;0.10;;;26.50;99.90;;;;;;20736677;28;20601;-68
2021/06/05 12:14:16;;;;;;;0.38;0.30;;;26.10;99.90;;;;;;20696645;28;20237;-64
2021/06/05 12:24:23;;;;;;;5.68;1.08;;;27.00;99.90;;;;;;20734911;28;20572;-66
2021/06/05 12:34:35;;;;;;;9.25;0.57;;;25.80;99.90;;;;;;20734839;28;20231;-67
2021/06/05 12:44:41;;;;;;;0.20;0.10;;;25.70;99.90;;;;;;20718053;28;20205;-66
2021/06/05 12:54:48;;;;;;;0.20;0.08;;;26.70;99.90;;;;;;20734980;28;20226;-67
2021/06/05 13:04:51;;;;;;;0.60;0.60;;;27.00;99.90;;;;;;20734166;28;20233;-68
2021/06/05 13:15:13;;;;;;;0.85;0.35;;;28.20;99.90;;;;;;20657666;28;20222;-67
2021/06/05 13:25:26;;;;;;;3.63;0.93;;;27.20;99.90;;;;;;20653864;28;20250;-68
2021/06/05 13:35:43;;;;;;;4.40;0.65;;;27.10;99.90;;;;;;20704298;28;20281;-66
2021/06/05 13:45:46;;;;;;;0.20;0.10;;;27.20;99.90;;;;;;20713354;28;20578;-68
2021/06/05 13:55:54;;;;;;;0.30;0.20;;;26.90;99.90;;;;;;20712759;28;20650;-67
2021/06/05 14:05:57;;;;;;;0.50;0.32;;;27.70;99.90;;;;;;20665537;28;20430;-68
2021/06/05 14:16:02;;;;;;;0.50;0.32;;;29.20;99.90;;;;;;20649825;28;20648;-66
2021/06/05 14:26:09;;;;;;;0.75;0.60;;;28.80;99.90;;;;;;20647620;28;20203;-70
2021/06/05 14:36:14;;;;;;;0.75;0.70;;;28.40;99.90;;;;;;20648210;28;20227;-67
2021/06/05 14:46:20;;;;;;;0.68;0.68;;;30.10;99.90;;;;;;20645412;28;20200;-66
2021/06/05 14:56:25;;;;;;;0.85;0.40;;;29.90;99.90;;;;;;20643989;28;20381;-65
2021/06/05 15:06:28;;;;;;;0.98;0.65;;;30.40;99.90;;;;;;20647623;28;20308;-67
2021/06/05 15:16:33;;;;;;;1.75;0.73;;;29.50;99.90;;;;;;20658783;28;20231;-66
2021/06/05 15:26:36;;;;;;;2.38;1.00;;;30.40;99.90;;;;;;20658002;28;20286;-67
2021/06/05 15:36:41;;;;;;;0.25;0.25;;;29.60;99.90;;;;;;20714131;28;20237;-67
2021/06/05 15:46:45;;;;;;;0.35;0.32;;;29.70;99.90;;;;;;20720471;28;20664;-67
2021/06/05 15:56:52;;;;;;;0.43;0.30;;;29.10;99.90;;;;;;20735485;28;20284;-66
2021/06/05 16:06:56;;;;;;;0.20;0.15;;;28.60;99.90;;;;;;20727114;28;20672;-67
2021/06/05 16:17:01;;;;;;;1.55;0.47;;;27.00;99.90;;;;;;20654471;28;20278;-67
2021/06/05 16:27:06;;;;;;;5.22;0.40;;;26.80;99.90;;;;;;20653091;28;20203;-68
2021/06/05 16:37:11;;;;;;;0.65;0.47;;;25.10;99.90;;;;;;20660755;28;20230;-67
2021/06/05 16:47:14;;;;;;;0.52;0.52;;;24.50;99.90;;;;;;20651437;28;20272;-66
2021/06/05 16:57:18;;;;;;;6.07;0.82;;;24.40;99.90;;;;;;20656562;28;20566;-68
2021/06/05 17:07:21;;;;;;;2.03;1.30;;;24.30;99.90;;;;;;20702423;28;20250;-69
2021/06/05 17:17:26;;;;;;;1.38;1.27;;;24.00;99.90;;;;;;20650354;28;20223;-65
2021/06/05 17:27:29;;;;;;;0.77;0.40;;;24.20;99.90;;;;;;20649357;28;20199;-67
2021/06/05 17:37:33;;;;;;;0.50;0.40;;;23.90;99.90;;;;;;20648607;28;20338;-66
2021/06/05 17:47:37;;;;;;;2.33;0.60;;;23.70;99.90;;;;;;20648468;28;20196;-65
2021/06/05 17:57:42;;;;;;;1.27;0.35;;;23.30;99.90;;;;;;20654938;28;20234;-67
2021/06/05 18:07:46;;;;;;;0.98;0.55;;;23.10;99.90;;;;;;20694954;28;20318;-67
2021/06/05 18:17:51;;;;;;;0.30;0.30;;;22.80;99.90;;;;;;20665661;28;20317;-64
2021/06/05 18:27:57;;;;;;;0.45;0.22;;;22.70;99.90;;;;;;20728589;28;20191;-66
2021/06/05 18:38:03;;;;;;;1.07;0.60;;;22.80;99.90;;;;;;20727822;28;20245;-69
2021/06/05 18:48:08;;;;;;;1.23;0.50;;;22.70;99.90;;;;;;20724962;28;20198;-68
2021/06/05 18:58:12;;;;;;;0.43;0.30;;;22.60;99.90;;;;;;20740994;28;20723;-65
2021/06/05 19:08:20;;;;;;;0.20;0.20;;;22.50;99.90;;;;;;20714106;28;20376;-68
2021/06/05 19:18:26;;;;;;;0.50;0.50;;;22.40;99.90;;;;;;20660187;28;20676;-66
2021/06/05 19:28:30;;;;;;;0.20;0.10;;;22.10;99.90;;;;;;20659994;28;20282;-67
2021/06/05 19:38:35;;;;;;;1.37;0.73;;;21.90;99.90;;;;;;20662409;28;20784;-69
2021/06/05 19:48:38;;;;;;;0.30;0.20;;;21.80;99.90;;;;;;20658617;28;20546;-67
2021/06/05 19:58:45;;;;;;;11.43;1.07;;;21.70;99.90;;;;;;20656252;28;20311;-68
2021/06/05 20:08:50;;;;;;;0.30;0.20;;;21.50;99.90;;;;;;20654827;28;20625;-67
2021/06/05 20:18:57;;;;;;;0.40;0.37;;;21.50;99.90;;;;;;20656133;28;20219;-64
2021/06/05 20:29:00;;;;;;;0.60;0.50;;;21.40;99.90;;;;;;20654367;28;20282;-66
2021/06/05 20:39:12;;;;;;;0.40;0.20;;;21.50;99.90;;;;;;20653920;28;20238;-67
2021/06/05 20:49:19;;;;;;;1.60;1.27;;;21.50;99.90;;;;;;20653394;28;20191;-67
2021/06/05 20:59:27;;;;;;;0.20;0.13;;;21.70;99.90;;;;;;20652255;28;20300;-67
2021/06/05 21:09:30;;;;;;;0.40;0.20;;;21.70;99.90;;;;;;20652387;28;20282;-67
2021/06/05 21:19:35;;;;;;;0.27;0.20;;;21.90;99.90;;;;;;20650042;28;20226;-67
2021/06/05 21:29:39;;;;;;;5.93;1.77;;;21.70;99.90;;;;;;20650604;28;20222;-66
2021/06/05 21:39:46;;;;;;;3.37;0.80;;;21.70;99.90;;;;;;20672251;28;20270;-67
2021/06/05 21:49:50;;;;;;;2.33;0.80;;;21.80;99.90;;;;;;20649291;28;20221;-67
2021/06/05 21:59:54;;;;;;;0.90;0.70;;;21.70;99.90;;;;;;20649263;28;20227;-66
2021/06/05 22:09:57;;;;;;;1.90;0.70;;;21.80;99.90;;;;;;20696501;28;20214;-66
2021/06/05 22:20:03;;;;;;;6.07;0.87;;;22.10;99.90;;;;;;20642438;28;20227;-67
2021/06/05 22:30:09;;;;;;;4.63;0.60;;;22.10;99.90;;;;;;20664357;28;20302;-67
2021/06/05 22:40:17;;;;;;;0.50;0.50;;;22.00;99.90;;;;;;22210905;23;20227;-68
2021/06/05 22:50:21;;;;;;;2.23;1.20;;;22.00;99.90;;;;;;20658521;28;20199;-68
2021/06/05 23:00:29;;;;;;;0.50;0.33;;;21.80;99.90;;;;;;20661774;28;20234;-66
2021/06/05 23:10:33;;;;;;;0.30;0.30;;;21.50;99.90;;;;;;20737434;28;20652;-67
2021/06/05 23:20:38;;;;;;;0.63;0.30;;;21.50;99.90;;;;;;20739832;28;20224;-68
2021/06/05 23:30:42;;;;;;;0.63;0.50;;;21.50;99.90;;;;;;20740196;28;20611;-68
2021/06/05 23:40:47;;;;;;;5.30;0.40;;;21.50;99.90;;;;;;20639806;28;20599;-68
2021/06/05 23:50:50;;;;;;;0.40;0.23;;;21.30;99.90;;;;;;20659711;28;20206;-66
